Time;durP1;ratioP1;P1;durP2;ratioP2;P2;SDS_P1;SDS_P2;PMS_P1;PMS_P2;Temp;Humidity;BMP_temperature;BMP_pressure;BME280_temperature;BME280_humidity;BME280_pressure;Samples;Min_cycle;Max_cycle;Signal;HPM_P1;HPM_P2
2021/06/13 00:00:51;;;;;;;28.52;11.85;;;;;;;11.54;74.75;102558.16;5065174;28;20099;-63
2021/06/13 00:03:16;;;;;;;28.75;11.48;;;;;;;11.47;74.52;102557.06;5062287;28;20054;-63
2021/06/13 00:05:42;;;;;;;27.58;12.13;;;;;;;11.36;74.42;102557.63;5064386;28;20029;-63
2021/06/13 00:08:07;;;;;;;27.05;11.90;;;;;;;11.26;76.17;102553.84;5062569;28;20032;-62
2021/06/13 00:10:32;;;;;;;29.63;11.90;;;;;;;11.35;75.97;102562.03;5064375;28;20036;-62
2021/06/13 00:12:58;;;;;;;27.55;11.43;;;;;;;11.33;75.30;102564.66;5063980;28;20033;-63
2021/06/13 00:15:25;;;;;;;28.25;12.35;;;;;;;11.15;76.14;102562.38;5063239;28;20024;-62
2021/06/13 00:17:52;;;;;;;27.98;12.32;;;;;;;10.94;77.49;102559.97;5064557;28;20036;-63
2021/06/13 00:20:22;;;;;;;30.42;12.15;;;;;;;10.94;78.09;102564.38;5062396;28;20043;-62
2021/06/13 00:22:48;;;;;;;28.38;12.88;;;;;;;10.94;78.27;102556.44;5065074;28;20029;-62
2021/06/13 00:25:14;;;;;;;29.30;12.55;;;;;;;10.96;78.11;102560.03;5061890;28;20056;-63
2021/06/13 00:27:40;;;;;;;30.77;12.93;;;;;;;10.91;78.57;102559.00;5064945;28;20483;-62
2021/06/13 00:30:09;;;;;;;29.77;12.55;;;;;;;10.94;78.22;102561.75;5062486;28;20029;-62
2021/06/13 00:32:34;;;;;;;28.73;12.77;;;;;;;10.91;77.91;102557.25;5064344;28;20033;-62
2021/06/13 00:35:00;;;;;;;26.73;11.90;;;;;;;10.92;77.79;102563.44;5063086;28;20421;-62
2021/06/13 00:37:26;;;;;;;28.80;12.95;;;;;;;10.75;78.23;102555.88;5063202;28;20021;-62
2021/06/13 00:39:51;;;;;;;31.58;13.07;;;;;;;10.76;78.74;102565.63;5064047;28;20038;-62
2021/06/13 00:42:21;;;;;;;28.67;13.10;;;;;;;10.78;78.26;102568.31;5061862;28;20025;-62
2021/06/13 00:44:47;;;;;;;27.65;12.07;;;;;;;10.76;77.58;102565.63;5064716;28;20029;-63
2021/06/13 00:47:12;;;;;;;27.48;11.88;;;;;;;10.73;77.47;102575.19;5061492;28;20070;-63
2021/06/13 00:49:37;;;;;;;29.55;13.40;;;;;;;10.78;78.87;102579.78;5064673;28;20077;-62
2021/06/13 00:52:04;;;;;;;30.85;12.82;;;;;;;10.71;79.84;102584.84;5062599;28;20106;-65
2021/06/13 00:54:30;;;;;;;30.67;12.95;;;;;;;10.48;81.13;102577.06;5063002;28;20506;-67
2021/06/13 00:56:56;;;;;;;28.88;12.80;;;;;;;10.50;80.59;102575.38;5063385;28;20024;-67
2021/06/13 00:59:21;;;;;;;27.95;12.77;;;;;;;10.63;80.03;102587.25;5062208;28;20025;-64
2021/06/13 01:01:46;;;;;;;28.45;12.57;;;;;;;10.58;80.01;102575.63;5064445;28;20036;-64
2021/06/13 01:04:12;;;;;;;31.20;13.63;;;;;;;10.56;80.20;102579.97;5061375;28;20061;-63
2021/06/13 01:07:04;;;;;;;28.65;13.25;;;;;;;10.62;79.11;102580.16;5064119;28;20024;-65
2021/06/13 01:09:34;;;;;;;28.75;13.25;;;;;;;10.57;80.03;102585.31;5061318;28;20052;-67
2021/06/13 01:12:15;;;;;;;30.55;12.95;;;;;;;10.63;78.93;102574.91;5062652;28;20024;-64
2021/06/13 01:15:01;;;;;;;29.98;13.73;;;;;;;10.59;79.48;102577.41;5064443;28;20040;-64
2021/06/13 01:17:32;;;;;;;30.77;13.43;;;;;;;10.49;79.91;102570.03;5060353;28;20029;-67
2021/06/13 01:20:13;;;;;;;29.27;13.15;;;;;;;10.47;79.14;102570.00;5062680;28;20032;-66
2021/06/13 01:22:52;;;;;;;31.25;13.43;;;;;;;10.48;79.22;102569.13;5064119;28;20082;-64
2021/06/13 01:25:55;;;;;;;29.35;12.73;;;;;;;10.41;78.24;102570.69;5058097;28;20032;-67
2021/06/13 01:28:39;;;;;;;30.73;13.77;;;;;;;10.33;79.04;102574.78;5058574;28;20041;-68
2021/06/13 01:31:06;;;;;;;28.50;12.77;;;;;;;10.30;80.38;102580.84;5061664;28;20464;-64
2021/06/13 01:33:33;;;;;;;30.20;13.80;;;;;;;10.18;81.77;102569.91;5063101;28;20512;-63
2021/06/13 01:36:01;;;;;;;29.02;13.27;;;;;;;10.19;81.87;102576.06;5062534;28;20032;-64
2021/06/13 01:38:28;;;;;;;29.40;13.00;;;;;;;10.17;81.49;102572.50;5061246;28;20041;-63
2021/06/13 01:40:55;;;;;;;28.35;13.23;;;;;;;10.05;81.13;102576.50;5063337;28;20020;-63
2021/06/13 01:43:23;;;;;;;30.02;13.55;;;;;;;10.10;81.24;102571.38;5061179;28;20025;-63
2021/06/13 01:45:53;;;;;;;30.10;13.10;;;;;;;10.01;80.30;102566.66;5064023;28;20095;-64
2021/06/13 01:48:19;;;;;;;29.08;13.52;;;;;;;9.82;82.04;102564.25;5061211;28;20428;-63
2021/06/13 01:50:45;;;;;;;28.05;13.52;;;;;;;9.69;83.86;102563.81;5064273;28;20055;-63
2021/06/13 01:53:14;;;;;;;30.40;13.90;;;;;;;9.73;84.45;102571.00;5061032;28;20029;-64
2021/06/13 01:55:44;;;;;;;28.20;13.80;;;;;;;9.69;83.36;102563.81;5063461;28;20040;-62
2021/06/13 01:58:12;;;;;;;29.55;13.32;;;;;;;9.75;84.20;102571.06;5064975;28;20040;-62
2021/06/13 02:00:39;;;;;;;28.25;13.82;;;;;;;9.64;83.17;102565.41;5067802;28;20429;-62
2021/06/13 02:03:05;;;;;;;28.20;13.18;;;;;;;9.60;84.00;102572.31;5065411;28;20031;-62
2021/06/13 02:05:33;;;;;;;29.50;13.88;;;;;;;9.62;84.14;102567.06;5066770;28;20060;-62
2021/06/13 02:07:59;;;;;;;29.42;13.80;;;;;;;9.54;83.70;102571.22;5066382;28;20399;-62
2021/06/13 02:10:27;;;;;;;28.90;13.50;;;;;;;9.47;83.69;102566.53;5065604;28;20037;-62
2021/06/13 02:12:53;;;;;;;30.20;13.80;;;;;;;9.39;84.97;102564.53;5067425;28;20423;-62
2021/06/13 02:15:22;;;;;;;29.80;14.00;;;;;;;9.34;86.11;102571.34;5064894;28;20025;-62
2021/06/13 02:17:50;;;;;;;30.63;13.85;;;;;;;9.33;86.36;102569.56;5067438;28;20035;-62
2021/06/13 02:20:21;;;;;;;30.77;14.48;;;;;;;9.36;86.90;102574.97;5064430;28;20021;-62
2021/06/13 02:22:48;;;;;;;29.55;13.93;;;;;;;9.42;86.00;102571.63;5060782;28;20074;-62
2021/06/13 02:25:14;;;;;;;29.85;14.50;;;;;;;9.40;86.96;102562.78;5067704;28;20095;-62
2021/06/13 02:27:41;;;;;;;30.50;14.52;;;;;;;9.38;86.95;102568.00;5064737;28;20029;-62
2021/06/13 02:30:08;;;;;;;30.95;14.13;;;;;;;9.43;86.37;102569.03;5066711;28;20025;-62
2021/06/13 02:32:36;;;;;;;31.33;14.32;;;;;;;9.39;86.47;102575.09;5063749;28;20101;-62
2021/06/13 02:35:05;;;;;;;32.88;14.77;;;;;;;9.46;86.94;102575.28;5066132;28;20033;-62
2021/06/13 02:37:31;;;;;;;29.30;13.73;;;;;;;9.46;84.75;102581.47;5065487;28;20032;-64
2021/06/13 02:39:57;;;;;;;30.65;14.95;;;;;;;9.47;84.92;102580.63;5065478;28;20035;-63
2021/06/13 02:42:22;;;;;;;29.85;13.68;;;;;;;9.57;84.76;102573.94;5066679;28;20020;-64
2021/06/13 02:44:48;;;;;;;28.02;13.30;;;;;;;9.41;84.20;102578.66;5063868;28;20029;-65
2021/06/13 02:47:15;;;;;;;28.70;14.10;;;;;;;9.31;84.54;102575.66;5067318;28;20418;-64
2021/06/13 02:49:40;;;;;;;31.10;14.38;;;;;;;9.28;86.62;102575.53;5064082;28;20029;-64
2021/06/13 02:52:40;;;;;;;32.90;14.98;;;;;;;9.33;86.46;102580.09;5066170;28;20116;-63
2021/06/13 02:55:09;;;;;;;31.10;14.70;;;;;;;9.23;87.32;102585.88;5065280;28;20049;-64
2021/06/13 02:57:53;;;;;;;29.85;14.52;;;;;;;9.25;85.86;102593.03;5064537;28;20119;-63
2021/06/13 03:00:19;;;;;;;31.13;14.55;;;;;;;9.22;86.02;102585.00;5060504;28;20384;-63
2021/06/13 03:02:48;;;;;;;30.88;14.60;;;;;;;9.10;86.37;102581.00;5066713;28;20025;-64
2021/06/13 03:05:16;;;;;;;28.75;13.32;;;;;;;9.02;86.21;102584.25;5059787;28;20033;-65
2021/06/13 03:07:43;;;;;;;29.05;12.98;;;;;;;8.99;85.75;102589.41;5066442;28;20311;-64
2021/06/13 03:10:10;;;;;;;31.48;13.73;;;;;;;8.99;84.93;102584.13;5063607;28;20079;-64
2021/06/13 03:12:37;;;;;;;28.73;13.65;;;;;;;8.91;85.65;102572.38;5066005;28;20112;-64
2021/06/13 03:15:03;;;;;;;30.70;14.85;;;;;;;8.88;86.25;102569.63;5064805;28;20035;-66
2021/06/13 03:17:30;;;;;;;28.73;13.48;;;;;;;8.91;86.64;102572.38;5064592;28;20027;-65
2021/06/13 03:19:56;;;;;;;30.30;14.35;;;;;;;8.79;86.58;102566.63;5065617;28;20504;-63
2021/06/13 03:22:22;;;;;;;30.88;13.70;;;;;;;8.76;86.78;102571.78;5063970;28;20116;-64
2021/06/13 03:24:50;;;;;;;31.45;14.27;;;;;;;8.73;87.15;102569.91;5066502;28;20033;-65
2021/06/13 03:27:17;;;;;;;30.48;14.50;;;;;;;8.66;87.31;102574.03;5063433;28;20029;-64
2021/06/13 03:29:45;;;;;;;29.58;14.68;;;;;;;8.62;86.87;102572.16;5059485;28;20370;-64
2021/06/13 03:32:12;;;;;;;29.50;14.38;;;;;;;8.57;88.36;102578.97;5065884;28;20017;-63
2021/06/13 03:34:43;;;;;;;31.30;14.20;;;;;;;8.55;89.75;102581.53;5063970;28;20044;-64
2021/06/13 03:37:12;;;;;;;33.38;15.65;;;;;;;8.58;90.86;102575.50;5065887;28;20017;-64
2021/06/13 03:39:40;;;;;;;29.15;15.13;;;;;;;8.56;90.61;102582.41;5063277;28;20033;-64
2021/06/13 03:42:06;;;;;;;33.97;15.48;;;;;;;8.57;91.20;102589.50;5065142;28;20487;-63
2021/06/13 03:44:33;;;;;;;32.00;15.20;;;;;;;8.57;90.92;102600.03;5064335;28;20119;-64
2021/06/13 03:46:59;;;;;;;32.50;14.60;;;;;;;8.62;89.50;102590.59;5063973;28;20465;-65
2021/06/13 03:49:25;;;;;;;31.35;14.45;;;;;;;8.62;90.15;102589.69;5065224;28;20054;-70
2021/06/13 03:51:52;;;;;;;29.38;14.40;;;;;;;8.61;90.63;102603.72;5063046;28;20353;-66
2021/06/13 03:54:18;;;;;;;29.63;14.48;;;;;;;8.59;89.69;102598.41;5065755;28;20052;-63
2021/06/13 03:56:58;;;;;;;30.05;14.10;;;;;;;8.61;89.30;102604.63;5058428;28;20055;-64
2021/06/13 03:59:25;;;;;;;30.25;14.82;;;;;;;8.61;89.94;102607.25;5058779;28;20037;-63
2021/06/13 04:01:52;;;;;;;30.42;14.57;;;;;;;8.59;90.94;102608.94;5065541;28;20036;-66
2021/06/13 04:04:18;;;;;;;32.58;15.60;;;;;;;8.69;91.59;102616.38;5062415;28;20036;-66
2021/06/13 04:06:46;;;;;;;31.50;14.10;;;;;;;8.79;91.67;102614.09;5058421;28;20066;-63
2021/06/13 04:09:12;;;;;;;31.85;14.80;;;;;;;8.89;89.97;102617.16;5065539;28;20029;-67
2021/06/13 04:11:38;;;;;;;32.58;14.85;;;;;;;8.95;89.91;102615.59;5062933;28;20853;-67
2021/06/13 04:14:04;;;;;;;29.80;14.30;;;;;;;9.11;89.40;102619.75;5064207;28;20056;-63
2021/06/13 04:16:33;;;;;;;29.65;13.80;;;;;;;9.06;88.22;102619.56;5064115;28;20029;-67
2021/06/13 04:19:01;;;;;;;33.72;15.13;;;;;;;9.03;89.88;102627.38;5062759;28;20025;-64
2021/06/13 04:21:28;;;;;;;32.83;14.48;;;;;;;8.96;89.98;102630.59;5064316;28;20024;-66
2021/06/13 04:23:56;;;;;;;29.65;14.48;;;;;;;8.98;90.77;102635.06;5062754;28;20028;-64
2021/06/13 04:26:22;;;;;;;29.10;13.88;;;;;;;9.11;90.39;102636.47;5064759;28;20467;-66
2021/06/13 04:28:49;;;;;;;31.20;14.50;;;;;;;9.19;89.54;102631.50;5061858;28;20025;-65
2021/06/13 04:31:17;;;;;;;31.38;15.18;;;;;;;9.17;90.17;102626.13;5057931;28;20021;-65
2021/06/13 04:33:45;;;;;;;31.35;14.68;;;;;;;9.29;90.35;102636.28;5065033;28;20064;-64
2021/06/13 04:36:12;;;;;;;30.98;15.45;;;;;;;9.32;89.49;102627.56;5062030;28;20029;-64
2021/06/13 04:38:38;;;;;;;31.02;14.20;;;;;;;9.30;89.20;102640.69;5064324;28;20471;-63
2021/06/13 04:41:05;;;;;;;34.78;16.25;;;;;;;9.29;91.88;102636.28;5062838;28;20032;-66
2021/06/13 04:43:33;;;;;;;31.60;15.00;;;;;;;9.45;91.53;102650.03;5063101;28;20027;-66
2021/06/13 04:45:58;;;;;;;30.95;15.43;;;;;;;9.55;91.51;102654.81;5063841;28;20025;-62
2021/06/13 04:48:23;;;;;;;30.85;15.80;;;;;;;9.66;90.50;102655.25;5062433;28;20032;-63
2021/06/13 04:50:49;;;;;;;32.78;16.30;;;;;;;9.69;91.26;102653.59;5064692;28;20021;-63
2021/06/13 04:53:17;;;;;;;35.20;16.10;;;;;;;9.77;90.54;102661.78;5061645;28;20107;-63
2021/06/13 04:55:51;;;;;;;32.28;16.48;;;;;;;9.83;91.62;102666.41;5064513;28;20044;-63
2021/06/13 04:58:24;;;;;;;32.65;16.63;;;;;;;9.90;91.92;102664.06;5056583;28;20035;-63
2021/06/13 05:00:49;;;;;;;34.63;16.83;;;;;;;9.98;93.26;102661.69;5054878;28;20020;-61
2021/06/13 05:03:14;;;;;;;37.40;19.08;;;;;;;10.07;93.23;102666.41;5061225;28;20069;-60
2021/06/13 05:05:40;;;;;;;35.85;18.83;;;;;;;10.20;93.61;102667.72;5063176;28;20021;-61
2021/06/13 05:08:06;;;;;;;38.55;19.90;;;;;;;10.29;93.95;102668.03;5057202;28;20464;-60
2021/06/13 05:10:31;;;;;;;36.13;18.48;;;;;;;10.36;94.39;102670.09;5059084;28;20656;-60
2021/06/13 05:12:57;;;;;;;37.13;18.80;;;;;;;10.48;93.84;102668.72;5056438;28;20025;-61
2021/06/13 05:15:23;;;;;;;38.40;19.13;;;;;;;10.61;94.43;102671.78;5059785;28;20021;-61
2021/06/13 05:17:49;;;;;;;35.72;19.45;;;;;;;10.72;94.09;102666.88;5060914;28;20107;-61
2021/06/13 05:20:15;;;;;;;39.55;19.95;;;;;;;10.81;93.87;102680.41;5056406;28;20025;-60
2021/06/13 05:22:54;;;;;;;41.42;20.45;;;;;;;10.90;93.43;102678.91;5059254;28;20113;-60
2021/06/13 05:25:21;;;;;;;39.08;20.83;;;;;;;10.98;93.26;102680.06;5055724;28;20029;-59
2021/06/13 05:27:46;;;;;;;41.47;20.00;;;;;;;11.06;92.28;102678.53;5056302;28;20468;-60
2021/06/13 05:30:12;;;;;;;42.30;20.63;;;;;;;11.14;93.03;102687.63;5057602;28;20031;-60
2021/06/13 05:32:38;;;;;;;40.08;19.90;;;;;;;11.22;93.08;102682.56;5057690;28;20106;-60
2021/06/13 05:35:04;;;;;;;41.55;20.52;;;;;;;11.30;92.66;102689.00;5055825;28;20053;-61
2021/06/13 05:37:29;;;;;;;42.25;20.63;;;;;;;11.39;92.47;102693.69;5058361;28;20490;-60
2021/06/13 05:39:54;;;;;;;41.80;20.55;;;;;;;11.44;92.02;102684.09;5056530;28;20025;-61
2021/06/13 05:42:19;;;;;;;36.05;19.63;;;;;;;11.57;91.04;102695.97;5057860;28;20060;-61
2021/06/13 05:44:45;;;;;;;38.97;20.50;;;;;;;11.65;90.54;102691.81;5058772;28;20067;-62
2021/06/13 05:47:10;;;;;;;38.28;20.00;;;;;;;11.73;90.02;102697.31;5056362;28;20108;-61
2021/06/13 05:49:35;;;;;;;40.63;20.08;;;;;;;11.79;88.61;102708.09;5059079;28;20108;-61
2021/06/13 05:52:01;;;;;;;41.03;20.20;;;;;;;11.94;88.45;102701.47;5060570;28;20063;-61
2021/06/13 05:54:26;;;;;;;41.92;21.40;;;;;;;12.02;88.12;102707.88;5058028;28;20072;-61
2021/06/13 05:56:51;;;;;;;41.45;21.60;;;;;;;12.14;87.68;102710.88;5061075;28;20369;-61
2021/06/13 05:59:17;;;;;;;40.35;21.08;;;;;;;12.22;86.89;102711.09;5059933;28;20048;-61
2021/06/13 06:01:43;;;;;;;40.53;20.67;;;;;;;12.31;86.76;102708.69;5061926;28;20442;-61
2021/06/13 06:04:08;;;;;;;42.78;21.23;;;;;;;12.34;86.18;102718.47;5064069;28;20037;-61
2021/06/13 06:06:33;;;;;;;39.03;18.85;;;;;;;12.40;85.19;102718.63;5059809;28;20116;-63
2021/06/13 06:08:59;;;;;;;39.83;19.42;;;;;;;12.48;85.59;102714.44;5062003;28;20104;-63
2021/06/13 06:11:25;;;;;;;41.63;18.77;;;;;;;12.59;85.97;102716.47;5055341;28;20052;-64
2021/06/13 06:13:53;;;;;;;42.47;20.25;;;;;;;12.65;84.31;102713.97;5058733;28;20025;-64
2021/06/13 06:16:23;;;;;;;39.33;19.42;;;;;;;12.71;83.95;102714.13;5055879;28;20038;-64
2021/06/13 06:18:48;;;;;;;38.30;17.95;;;;;;;12.76;82.94;102722.22;5055541;28;20055;-63
2021/06/13 06:21:14;;;;;;;37.72;17.33;;;;;;;12.75;81.35;102712.47;5060944;28;20048;-64
2021/06/13 06:23:39;;;;;;;37.63;17.42;;;;;;;12.81;81.86;102712.59;5054995;28;20037;-65
2021/06/13 06:26:04;;;;;;;34.08;16.77;;;;;;;12.87;80.15;102712.75;5062123;28;20083;-66
2021/06/13 06:28:30;;;;;;;36.08;17.42;;;;;;;12.95;80.31;102718.25;5060610;28;20037;-63
2021/06/13 06:30:55;;;;;;;35.50;17.88;;;;;;;12.99;80.44;102723.69;5050935;28;20367;-64
2021/06/13 06:33:21;;;;;;;35.67;16.42;;;;;;;13.02;79.35;102725.50;5048913;28;20095;-64
2021/06/13 06:35:46;;;;;;;36.28;16.58;;;;;;;13.07;78.58;102730.03;5050271;28;20104;-64
2021/06/13 06:38:12;;;;;;;36.70;16.88;;;;;;;13.13;77.24;102733.72;5055962;28;20025;-63
2021/06/13 06:40:37;;;;;;;32.35;14.45;;;;;;;13.20;75.58;102739.19;5054654;28;20013;-64
2021/06/13 06:43:02;;;;;;;32.83;15.93;;;;;;;13.31;76.47;102741.22;5053617;28;20021;-64
2021/06/13 06:45:28;;;;;;;32.22;14.75;;;;;;;13.31;72.75;102744.78;5058375;28;20460;-64
2021/06/13 06:47:54;;;;;;;33.30;13.55;;;;;;;13.40;73.35;102745.03;5059417;28;20025;-65
2021/06/13 06:50:19;;;;;;;33.72;14.23;;;;;;;13.49;73.88;102754.97;5060891;28;20036;-64
2021/06/13 06:52:45;;;;;;;35.65;13.77;;;;;;;13.51;72.64;102747.00;5060412;28;20036;-64
2021/06/13 06:55:12;;;;;;;33.78;14.18;;;;;;;13.58;72.84;102747.19;5061546;28;20037;-64
2021/06/13 06:57:42;;;;;;;33.22;14.48;;;;;;;13.74;73.25;102750.19;5059538;28;20250;-65
2021/06/13 07:00:07;;;;;;;32.45;13.60;;;;;;;13.83;71.57;102755.69;5058973;28;20052;-64
2021/06/13 07:02:34;;;;;;;31.92;12.88;;;;;;;13.82;70.01;102748.59;5060433;28;20468;-63
2021/06/13 07:05:00;;;;;;;31.27;12.90;;;;;;;13.91;71.40;102748.78;5065502;28;20059;-64
2021/06/13 07:07:25;;;;;;;31.45;12.88;;;;;;;13.98;69.60;102751.56;5062936;28;20487;-64
2021/06/13 07:09:51;;;;;;;29.65;12.38;;;;;;;14.16;69.77;102759.91;5058974;28;20029;-63
2021/06/13 07:12:16;;;;;;;29.85;12.68;;;;;;;14.21;69.01;102752.94;5065670;28;20361;-63
2021/06/13 07:14:42;;;;;;;31.77;13.25;;;;;;;14.30;68.75;102755.75;5057441;28;20025;-64
2021/06/13 07:17:07;;;;;;;31.80;12.88;;;;;;;14.42;68.16;102757.75;5043584;28;20032;-64
2021/06/13 07:19:32;;;;;;;31.20;12.60;;;;;;;14.51;67.15;102770.31;5053448;28;20020;-64
2021/06/13 07:21:58;;;;;;;30.77;11.82;;;;;;;14.62;65.89;102758.16;5052601;28;20017;-64
2021/06/13 07:24:23;;;;;;;28.58;11.45;;;;;;;14.73;65.07;102760.09;5050429;28;20035;-64
2021/06/13 07:26:48;;;;;;;29.42;11.13;;;;;;;14.77;64.06;102760.19;5051928;28;20029;-64
2021/06/13 07:29:14;;;;;;;30.42;11.27;;;;;;;14.67;63.48;102762.66;5051694;28;20116;-64
2021/06/13 07:31:40;;;;;;;27.95;10.38;;;;;;;14.57;62.85;102767.78;5055989;28;20017;-64
2021/06/13 07:34:05;;;;;;;29.52;10.63;;;;;;;14.62;63.67;102759.91;5057203;28;20483;-63
2021/06/13 07:36:30;;;;;;;28.33;10.57;;;;;;;14.78;63.50;102766.38;5066233;28;20028;-64
2021/06/13 07:38:56;;;;;;;28.42;11.05;;;;;;;14.93;61.60;102771.09;5059879;28;20029;-67
2021/06/13 07:41:21;;;;;;;27.50;10.80;;;;;;;14.95;61.43;102764.03;5065265;28;20024;-64
2021/06/13 07:43:46;;;;;;;29.23;11.05;;;;;;;15.07;60.75;102766.00;5065715;28;20123;-64
2021/06/13 07:46:12;;;;;;;28.63;11.23;;;;;;;15.16;60.09;102767.03;5063148;28;20029;-64
2021/06/13 07:48:37;;;;;;;26.88;11.07;;;;;;;15.25;59.71;102774.28;5063826;28;20035;-65
2021/06/13 07:51:03;;;;;;;27.63;11.02;;;;;;;15.33;59.58;102766.41;5064892;28;20024;-65
2021/06/13 07:53:32;;;;;;;30.45;11.55;;;;;;;15.44;60.45;102763.91;5061917;28;20491;-63
2021/06/13 07:55:57;;;;;;;28.95;11.57;;;;;;;15.63;59.92;102770.38;5064930;28;20049;-64
2021/06/13 07:58:22;;;;;;;29.45;10.75;;;;;;;15.77;58.49;102773.22;5062581;28;20045;-64
2021/06/13 08:00:50;;;;;;;26.88;10.57;;;;;;;15.91;58.01;102766.34;5065297;28;20033;-64
2021/06/13 08:03:15;;;;;;;27.15;10.57;;;;;;;16.04;57.94;102773.59;5062901;28;20043;-64
2021/06/13 08:05:42;;;;;;;26.83;10.82;;;;;;;15.92;57.90;102781.47;5064765;28;20033;-64
2021/06/13 08:08:10;;;;;;;26.27;10.32;;;;;;;15.82;57.24;102772.44;5063970;28;20103;-63
2021/06/13 08:10:36;;;;;;;30.73;11.38;;;;;;;15.75;57.84;102773.22;5063344;28;20468;-64
2021/06/13 08:13:02;;;;;;;27.55;10.70;;;;;;;15.68;58.45;102776.66;5064914;28;20028;-65
2021/06/13 08:15:28;;;;;;;25.38;10.38;;;;;;;15.87;58.59;102769.84;5062452;28;20017;-64
2021/06/13 08:17:54;;;;;;;27.05;10.63;;;;;;;16.08;57.16;102765.66;5065561;28;20027;-65
2021/06/13 08:20:19;;;;;;;26.77;10.48;;;;;;;16.16;55.05;102771.97;5062594;28;20021;-63
2021/06/13 08:22:45;;;;;;;26.63;10.20;;;;;;;16.42;55.39;102774.94;5064662;28;20025;-64
2021/06/13 08:25:11;;;;;;;27.00;10.65;;;;;;;16.65;55.54;102772.50;5063310;28;20459;-65
2021/06/13 08:27:37;;;;;;;28.75;10.38;;;;;;;16.83;56.08;102776.22;5063565;28;20028;-64
2021/06/13 08:30:05;;;;;;;27.92;10.40;;;;;;;17.01;54.77;102780.88;5064491;28;20020;-64
2021/06/13 08:32:31;;;;;;;27.13;10.88;;;;;;;17.08;54.37;102780.91;5062403;28;20388;-64
2021/06/13 08:34:56;;;;;;;25.55;9.88;;;;;;;17.13;55.59;102780.06;5065019;28;20024;-63
2021/06/13 08:37:22;;;;;;;27.23;10.25;;;;;;;17.19;54.54;102764.97;5061467;28;20143;-64
2021/06/13 08:39:47;;;;;;;28.50;10.93;;;;;;;17.18;53.07;102770.28;5064793;28;20040;-63
2021/06/13 08:42:12;;;;;;;26.52;9.70;;;;;;;17.37;54.08;102772.22;5062789;28;20025;-63
2021/06/13 08:44:39;;;;;;;25.52;9.60;;;;;;;17.50;53.09;102774.97;5062990;28;20078;-63
2021/06/13 08:47:08;;;;;;;25.25;9.90;;;;;;;17.68;51.88;102775.06;5063684;28;20025;-63
2021/06/13 08:49:34;;;;;;;25.52;9.30;;;;;;;17.83;52.86;102773.38;5062517;28;20135;-63
2021/06/13 08:51:59;;;;;;;24.40;9.40;;;;;;;17.93;49.90;102773.44;5064313;28;20021;-63
2021/06/13 08:54:25;;;;;;;26.10;8.90;;;;;;;18.08;50.19;102774.38;5061190;28;20049;-63
2021/06/13 08:56:50;;;;;;;24.02;7.78;;;;;;;18.20;47.77;102768.16;5064748;28;20032;-63
2021/06/13 08:59:15;;;;;;;24.10;8.27;;;;;;;18.23;48.35;102769.09;5061919;28;20027;-63
2021/06/13 09:01:41;;;;;;;24.00;7.68;;;;;;;18.15;49.19;102770.84;5062468;28;20064;-63
2021/06/13 09:04:07;;;;;;;24.20;8.80;;;;;;;18.24;48.17;102770.84;5063017;28;20024;-63
2021/06/13 09:06:33;;;;;;;23.75;8.40;;;;;;;18.06;46.94;102779.72;5061799;28;20025;-63
2021/06/13 09:08:59;;;;;;;24.15;8.43;;;;;;;17.96;47.65;102769.00;5064462;28;20024;-63
2021/06/13 09:11:28;;;;;;;24.55;7.82;;;;;;;18.03;48.12;102774.38;5057804;28;20031;-64
2021/06/13 09:13:53;;;;;;;25.02;8.25;;;;;;;18.06;46.81;102766.34;5063334;28;20378;-65
2021/06/13 09:16:27;;;;;;;22.92;8.63;;;;;;;18.20;47.25;102774.44;5062203;28;20051;-64
2021/06/13 09:18:53;;;;;;;23.80;8.40;;;;;;;18.52;47.20;102770.03;5063168;28;20111;-65
2021/06/13 09:21:25;;;;;;;25.65;8.02;;;;;;;18.73;45.58;102774.53;5061792;28;20420;-64
2021/06/13 09:23:51;;;;;;;;;;;;;;;18.92;47.51;102770.09;5063758;28;20116;-64
2021/06/13 09:26:17;;;;;;;23.13;7.32;;;;;;;19.13;45.91;102775.47;5061547;28;19999;-63
2021/06/13 09:28:51;;;;;;;23.40;8.15;;;;;;;19.10;45.59;102769.19;5062843;28;20020;-64
2021/06/13 09:31:28;;;;;;;26.48;8.40;;;;;;;19.26;45.07;102770.06;5061417;28;20029;-64
2021/06/13 09:33:56;;;;;;;22.73;7.32;;;;;;;19.57;45.54;102776.28;5062986;28;20028;-65
2021/06/13 09:36:25;;;;;;;23.00;7.85;;;;;;;19.65;44.46;102766.41;5062146;28;20025;-66
2021/06/13 09:38:58;;;;;;;22.40;7.15;;;;;;;19.88;44.69;102770.81;5063090;28;20025;-66
2021/06/13 09:41:24;;;;;;;22.80;7.10;;;;;;;19.98;44.23;102771.66;5062238;28;20033;-65
2021/06/13 09:43:56;;;;;;;24.20;7.57;;;;;;;20.12;44.29;102779.66;5063306;28;20093;-63
2021/06/13 09:46:22;;;;;;;;;;;;;;;20.20;42.79;102789.47;5062318;28;20029;-66
2021/06/13 09:48:54;;;;;;;25.55;7.97;;;;;;;19.74;44.57;102778.88;5063435;28;19999;-63
2021/06/13 09:51:32;;;;;;;22.70;7.83;;;;;;;19.56;44.63;102778.97;5061870;28;20104;-65
2021/06/13 09:53:57;;;;;;;25.58;7.80;;;;;;;19.81;45.11;102780.69;5062217;28;20035;-67
2021/06/13 09:56:33;;;;;;;23.95;7.97;;;;;;;19.76;44.74;102781.56;5061754;28;20053;-64
2021/06/13 09:59:05;;;;;;;22.42;7.45;;;;;;;20.00;43.52;102775.25;5061828;28;20090;-65
2021/06/13 10:01:52;;;;;;;23.25;7.97;;;;;;;20.17;43.33;102773.38;5062976;28;20425;-64
2021/06/13 10:04:17;;;;;;;21.63;7.38;;;;;;;20.66;42.59;102772.22;5058193;28;20068;-64
2021/06/13 10:06:43;;;;;;;24.10;7.85;;;;;;;21.68;40.92;102764.97;5064294;28;20504;-66
2021/06/13 10:09:08;;;;;;;21.65;6.93;;;;;;;23.53;38.03;102767.47;5060246;28;20029;-65
2021/06/13 10:11:36;;;;;;;22.15;6.60;;;;;;;24.87;33.68;102771.72;5063612;28;20016;-64
2021/06/13 10:14:06;;;;;;;21.58;6.63;;;;;;;26.26;32.42;102767.88;5061664;28;20028;-65
2021/06/13 10:16:31;;;;;;;22.33;7.00;;;;;;;26.60;30.70;102762.22;5063047;28;20467;-64
2021/06/13 10:19:01;;;;;;;22.05;6.47;;;;;;;27.51;30.14;102763.66;5065387;28;20040;-63
2021/06/13 10:21:30;;;;;;;22.95;6.60;;;;;;;27.96;27.80;102770.06;5066349;28;20082;-64
2021/06/13 10:23:56;;;;;;;20.50;6.18;;;;;;;28.72;27.28;102761.63;5065677;28;20483;-63
2021/06/13 10:26:22;;;;;;;20.83;6.43;;;;;;;28.75;26.32;102756.97;5065314;28;20029;-66
2021/06/13 10:28:48;;;;;;;21.38;6.25;;;;;;;28.27;27.34;102761.63;5067188;28;20020;-66
2021/06/13 10:31:13;;;;;;;21.83;6.70;;;;;;;29.51;25.47;102754.53;5064357;28;20525;-63
2021/06/13 10:33:41;;;;;;;22.35;5.93;;;;;;;30.55;24.62;102756.00;5067583;28;20024;-64
2021/06/13 10:36:07;;;;;;;20.35;6.15;;;;;;;30.28;25.16;102752.75;5064613;28;20082;-64
2021/06/13 10:38:32;;;;;;;20.63;5.97;;;;;;;30.10;23.89;102753.66;5066367;28;20033;-64
2021/06/13 10:40:59;;;;;;;20.90;6.15;;;;;;;30.22;24.21;102751.22;5065290;28;20066;-65
2021/06/13 10:43:29;;;;;;;20.63;6.07;;;;;;;29.16;25.15;102737.94;5065779;28;20086;-63
2021/06/13 10:46:25;;;;;;;20.25;5.95;;;;;;;29.87;26.85;102745.63;5065544;28;20450;-63
2021/06/13 10:48:52;;;;;;;20.25;5.80;;;;;;;30.31;24.08;102743.53;5040481;28;20112;-64
2021/06/13 10:51:33;;;;;;;21.48;5.57;;;;;;;30.22;23.58;102743.03;5044335;28;20094;-66
2021/06/13 10:54:24;;;;;;;19.52;5.88;;;;;;;31.11;23.71;102745.81;5043724;28;20500;-64
2021/06/13 10:56:52;;;;;;;22.27;6.20;;;;;;;31.15;23.34;102743.84;5042310;28;20041;-66
2021/06/13 10:59:19;;;;;;;21.23;6.07;;;;;;;31.04;22.42;102740.78;5044221;28;20045;-64
2021/06/13 11:02:13;;;;;;;20.38;5.72;;;;;;;32.15;22.72;102746.53;5024961;28;20099;-64
2021/06/13 11:04:47;;;;;;;21.10;5.60;;;;;;;32.81;20.89;102738.13;5037677;28;20040;-64
2021/06/13 11:07:27;;;;;;;19.05;5.20;;;;;;;33.33;21.17;102734.94;5041517;28;20380;-64
2021/06/13 11:10:05;;;;;;;19.15;5.30;;;;;;;33.63;21.56;102741.31;5042482;28;20025;-64
2021/06/13 11:12:38;;;;;;;19.25;5.28;;;;;;;34.20;20.26;102738.47;5042210;28;20037;-64
2021/06/13 11:15:05;;;;;;;20.45;5.95;;;;;;;34.24;19.01;102736.41;5043867;28;20036;-67
2021/06/13 11:17:54;;;;;;;20.38;5.43;;;;;;;33.85;20.42;102732.59;5025739;28;20033;-64